sensor_id;sensor_type;location;lat;lon;timestamp;P1;durP1;ratioP1;P2;durP2;ratioP2
50858;SDS011;36826;47.514;19.056;2023-06-10T00:01:44;10.52;;;6.80;;
50858;SDS011;36826;47.514;19.056;2023-06-10T00:04:13;7.03;;;6.22;;
50858;SDS011;36826;47.514;19.056;2023-06-10T00:06:40;7.93;;;6.68;;
50858;SDS011;36826;47.514;19.056;2023-06-10T00:09:06;7.72;;;5.78;;
50858;SDS011;36826;47.514;19.056;2023-06-10T00:11:35;8.57;;;6.40;;
50858;SDS011;36826;47.514;19.056;2023-06-10T00:14:03;8.02;;;6.53;;
50858;SDS011;36826;47.514;19.056;2023-06-10T00:16:29;7.40;;;6.25;;
50858;SDS011;36826;47.514;19.056;2023-06-10T00:18:55;8.88;;;6.75;;
50858;SDS011;36826;47.514;19.056;2023-06-10T00:21:29;7.65;;;6.00;;
50858;SDS011;36826;47.514;19.056;2023-06-10T00:24:05;8.23;;;7.07;;
50858;SDS011;36826;47.514;19.056;2023-06-10T00:26:32;9.48;;;6.68;;
50858;SDS011;36826;47.514;19.056;2023-06-10T00:28:58;9.48;;;7.05;;
50858;SDS011;36826;47.514;19.056;2023-06-10T00:31:24;8.07;;;7.00;;
50858;SDS011;36826;47.514;19.056;2023-06-10T00:33:51;7.00;;;5.65;;
50858;SDS011;36826;47.514;19.056;2023-06-10T00:36:17;6.55;;;5.75;;
50858;SDS011;36826;47.514;19.056;2023-06-10T00:38:43;9.20;;;6.68;;
50858;SDS011;36826;47.514;19.056;2023-06-10T00:41:08;10.18;;;6.07;;
50858;SDS011;36826;47.514;19.056;2023-06-10T00:43:34;8.02;;;6.10;;
50858;SDS011;36826;47.514;19.056;2023-06-10T00:46:00;7.47;;;6.03;;
50858;SDS011;36826;47.514;19.056;2023-06-10T00:48:26;6.78;;;6.18;;
50858;SDS011;36826;47.514;19.056;2023-06-10T00:50:53;7.22;;;6.05;;
50858;SDS011;36826;47.514;19.056;2023-06-10T00:53:19;9.20;;;6.22;;
50858;SDS011;36826;47.514;19.056;2023-06-10T00:55:47;9.55;;;6.28;;
50858;SDS011;36826;47.514;19.056;2023-06-10T00:58:13;9.85;;;6.03;;
50858;SDS011;36826;47.514;19.056;2023-06-10T01:00:39;7.15;;;6.18;;
50858;SDS011;36826;47.514;19.056;2023-06-10T01:03:04;7.78;;;6.30;;
50858;SDS011;36826;47.514;19.056;2023-06-10T01:05:36;10.35;;;6.20;;
50858;SDS011;36826;47.514;19.056;2023-06-10T01:08:07;6.75;;;5.85;;
50858;SDS011;36826;47.514;19.056;2023-06-10T01:10:45;8.75;;;6.45;;
50858;SDS011;36826;47.514;19.056;2023-06-10T01:13:14;7.68;;;6.35;;
50858;SDS011;36826;47.514;19.056;2023-06-10T01:15:41;10.13;;;6.70;;
50858;SDS011;36826;47.514;19.056;2023-06-10T01:18:07;8.10;;;7.00;;
50858;SDS011;36826;47.514;19.056;2023-06-10T01:20:35;11.55;;;6.93;;
50858;SDS011;36826;47.514;19.056;2023-06-10T01:23:05;7.63;;;6.47;;
50858;SDS011;36826;47.514;19.056;2023-06-10T01:25:31;8.45;;;6.85;;
50858;SDS011;36826;47.514;19.056;2023-06-10T01:28:05;7.97;;;6.63;;
50858;SDS011;36826;47.514;19.056;2023-06-10T01:30:59;7.55;;;6.70;;
50858;SDS011;36826;47.514;19.056;2023-06-10T01:33:47;7.18;;;5.68;;
50858;SDS011;36826;47.514;19.056;2023-06-10T01:36:16;8.23;;;5.93;;
50858;SDS011;36826;47.514;19.056;2023-06-10T01:38:44;9.02;;;6.72;;
50858;SDS011;36826;47.514;19.056;2023-06-10T01:41:15;7.43;;;6.63;;
50858;SDS011;36826;47.514;19.056;2023-06-10T01:43:42;9.93;;;6.70;;
50858;SDS011;36826;47.514;19.056;2023-06-10T01:46:09;8.50;;;5.85;;
50858;SDS011;36826;47.514;19.056;2023-06-10T01:48:34;8.20;;;5.93;;
50858;SDS011;36826;47.514;19.056;2023-06-10T01:51:00;6.63;;;5.70;;
50858;SDS011;36826;47.514;19.056;2023-06-10T01:53:26;8.25;;;6.20;;
50858;SDS011;36826;47.514;19.056;2023-06-10T01:55:51;7.35;;;6.30;;
50858;SDS011;36826;47.514;19.056;2023-06-10T01:58:17;9.18;;;6.20;;
50858;SDS011;36826;47.514;19.056;2023-06-10T02:00:42;7.10;;;5.75;;
50858;SDS011;36826;47.514;19.056;2023-06-10T02:03:08;7.85;;;5.80;;
50858;SDS011;36826;47.514;19.056;2023-06-10T02:05:33;10.35;;;7.00;;
50858;SDS011;36826;47.514;19.056;2023-06-10T02:07:59;9.50;;;6.43;;
50858;SDS011;36826;47.514;19.056;2023-06-10T02:10:26;7.75;;;6.18;;
50858;SDS011;36826;47.514;19.056;2023-06-10T02:12:52;7.43;;;6.22;;
50858;SDS011;36826;47.514;19.056;2023-06-10T02:15:17;9.95;;;6.82;;
50858;SDS011;36826;47.514;19.056;2023-06-10T02:17:43;8.52;;;6.78;;
50858;SDS011;36826;47.514;19.056;2023-06-10T02:20:10;9.32;;;7.18;;
50858;SDS011;36826;47.514;19.056;2023-06-10T02:22:37;7.32;;;6.53;;
50858;SDS011;36826;47.514;19.056;2023-06-10T02:25:03;9.35;;;7.28;;
50858;SDS011;36826;47.514;19.056;2023-06-10T02:27:30;8.63;;;7.38;;
50858;SDS011;36826;47.514;19.056;2023-06-10T02:29:56;8.65;;;7.50;;
50858;SDS011;36826;47.514;19.056;2023-06-10T02:32:22;12.65;;;7.40;;
50858;SDS011;36826;47.514;19.056;2023-06-10T02:34:50;10.88;;;7.45;;
50858;SDS011;36826;47.514;19.056;2023-06-10T02:37:16;11.75;;;7.82;;
50858;SDS011;36826;47.514;19.056;2023-06-10T02:39:41;9.95;;;7.30;;
50858;SDS011;36826;47.514;19.056;2023-06-10T02:42:07;9.63;;;7.28;;
50858;SDS011;36826;47.514;19.056;2023-06-10T02:44:33;10.10;;;7.25;;
50858;SDS011;36826;47.514;19.056;2023-06-10T02:46:59;8.93;;;7.38;;
50858;SDS011;36826;47.514;19.056;2023-06-10T02:49:25;8.85;;;7.57;;
50858;SDS011;36826;47.514;19.056;2023-06-10T02:51:52;10.00;;;7.13;;
50858;SDS011;36826;47.514;19.056;2023-06-10T02:54:19;8.10;;;7.30;;
50858;SDS011;36826;47.514;19.056;2023-06-10T02:56:45;8.05;;;7.25;;
50858;SDS011;36826;47.514;19.056;2023-06-10T02:59:13;8.35;;;7.45;;
50858;SDS011;36826;47.514;19.056;2023-06-10T03:01:39;7.88;;;6.65;;
50858;SDS011;36826;47.514;19.056;2023-06-10T03:04:04;9.82;;;6.28;;
50858;SDS011;36826;47.514;19.056;2023-06-10T03:06:30;6.43;;;5.82;;
50858;SDS011;36826;47.514;19.056;2023-06-10T03:09:02;7.68;;;6.18;;
50858;SDS011;36826;47.514;19.056;2023-06-10T03:11:31;10.10;;;5.65;;
50858;SDS011;36826;47.514;19.056;2023-06-10T03:13:57;7.82;;;5.72;;
50858;SDS011;36826;47.514;19.056;2023-06-10T03:16:22;7.30;;;5.15;;
50858;SDS011;36826;47.514;19.056;2023-06-10T03:18:50;6.72;;;4.72;;
50858;SDS011;36826;47.514;19.056;2023-06-10T03:21:15;7.22;;;5.13;;
50858;SDS011;36826;47.514;19.056;2023-06-10T03:23:41;6.10;;;5.45;;
50858;SDS011;36826;47.514;19.056;2023-06-10T03:26:06;7.93;;;5.38;;
50858;SDS011;36826;47.514;19.056;2023-06-10T03:28:32;7.20;;;5.18;;
50858;SDS011;36826;47.514;19.056;2023-06-10T03:30:58;7.53;;;5.22;;
50858;SDS011;36826;47.514;19.056;2023-06-10T03:33:23;5.55;;;4.82;;
50858;SDS011;36826;47.514;19.056;2023-06-10T03:35:49;5.78;;;5.13;;
50858;SDS011;36826;47.514;19.056;2023-06-10T03:38:14;6.30;;;5.05;;
50858;SDS011;36826;47.514;19.056;2023-06-10T03:40:40;8.70;;;5.20;;
50858;SDS011;36826;47.514;19.056;2023-06-10T03:43:05;7.40;;;6.43;;
50858;SDS011;36826;47.514;19.056;2023-06-10T03:45:31;5.82;;;4.57;;
50858;SDS011;36826;47.514;19.056;2023-06-10T03:47:57;6.10;;;4.40;;
50858;SDS011;36826;47.514;19.056;2023-06-10T03:50:23;7.15;;;4.88;;
50858;SDS011;36826;47.514;19.056;2023-06-10T03:52:49;7.65;;;4.05;;
50858;SDS011;36826;47.514;19.056;2023-06-10T03:55:16;5.53;;;3.78;;
50858;SDS011;36826;47.514;19.056;2023-06-10T03:57:43;6.43;;;4.45;;
50858;SDS011;36826;47.514;19.056;2023-06-10T04:00:09;5.90;;;3.95;;
50858;SDS011;36826;47.514;19.056;2023-06-10T04:02:38;7.18;;;4.35;;
50858;SDS011;36826;47.514;19.056;2023-06-10T04:05:10;5.97;;;4.53;;
50858;SDS011;36826;47.514;19.056;2023-06-10T04:07:37;5.28;;;3.95;;
50858;SDS011;36826;47.514;19.056;2023-06-10T04:10:04;6.97;;;3.88;;
50858;SDS011;36826;47.514;19.056;2023-06-10T04:12:31;6.28;;;3.85;;
50858;SDS011;36826;47.514;19.056;2023-06-10T04:14:56;4.63;;;2.90;;
50858;SDS011;36826;47.514;19.056;2023-06-10T04:17:22;6.20;;;3.20;;
50858;SDS011;36826;47.514;19.056;2023-06-10T04:19:47;4.50;;;3.28;;
50858;SDS011;36826;47.514;19.056;2023-06-10T04:22:13;3.38;;;3.08;;
50858;SDS011;36826;47.514;19.056;2023-06-10T04:24:38;3.67;;;3.22;;
50858;SDS011;36826;47.514;19.056;2023-06-10T04:27:04;4.47;;;3.70;;
50858;SDS011;36826;47.514;19.056;2023-06-10T04:29:30;4.18;;;3.53;;
50858;SDS011;36826;47.514;19.056;2023-06-10T04:31:55;6.70;;;3.80;;
50858;SDS011;36826;47.514;19.056;2023-06-10T04:34:21;6.80;;;4.03;;
50858;SDS011;36826;47.514;19.056;2023-06-10T04:36:46;5.03;;;4.03;;
50858;SDS011;36826;47.514;19.056;2023-06-10T04:39:12;5.03;;;4.35;;
50858;SDS011;36826;47.514;19.056;2023-06-10T04:41:38;5.20;;;4.13;;
50858;SDS011;36826;47.514;19.056;2023-06-10T04:44:04;5.50;;;3.65;;
50858;SDS011;36826;47.514;19.056;2023-06-10T04:46:30;3.72;;;2.85;;
50858;SDS011;36826;47.514;19.056;2023-06-10T04:48:56;5.28;;;3.15;;
50858;SDS011;36826;47.514;19.056;2023-06-10T04:51:22;3.60;;;2.90;;
50858;SDS011;36826;47.514;19.056;2023-06-10T04:53:47;4.00;;;2.47;;
50858;SDS011;36826;47.514;19.056;2023-06-10T04:56:13;5.10;;;2.22;;
50858;SDS011;36826;47.514;19.056;2023-06-10T04:58:40;3.47;;;2.43;;
50858;SDS011;36826;47.514;19.056;2023-06-10T05:01:05;4.05;;;2.53;;
50858;SDS011;36826;47.514;19.056;2023-06-10T05:03:31;2.70;;;2.50;;
50858;SDS011;36826;47.514;19.056;2023-06-10T05:05:58;2.92;;;1.90;;
50858;SDS011;36826;47.514;19.056;2023-06-10T05:08:23;2.47;;;1.77;;
50858;SDS011;36826;47.514;19.056;2023-06-10T05:10:49;3.38;;;1.70;;
50858;SDS011;36826;47.514;19.056;2023-06-10T05:13:16;2.15;;;1.58;;
50858;SDS011;36826;47.514;19.056;2023-06-10T05:15:41;3.35;;;1.60;;
50858;SDS011;36826;47.514;19.056;2023-06-10T05:20:35;2.58;;;1.50;;
50858;SDS011;36826;47.514;19.056;2023-06-10T05:23:00;2.83;;;1.70;;
50858;SDS011;36826;47.514;19.056;2023-06-10T05:25:27;4.40;;;1.50;;
50858;SDS011;36826;47.514;19.056;2023-06-10T05:27:55;4.07;;;1.50;;
50858;SDS011;36826;47.514;19.056;2023-06-10T05:30:21;3.35;;;1.20;;
50858;SDS011;36826;47.514;19.056;2023-06-10T05:32:47;1.88;;;0.80;;
50858;SDS011;36826;47.514;19.056;2023-06-10T05:35:13;2.20;;;1.17;;
50858;SDS011;36826;47.514;19.056;2023-06-10T05:37:38;3.72;;;0.90;;
50858;SDS011;36826;47.514;19.056;2023-06-10T05:40:04;4.60;;;0.75;;
50858;SDS011;36826;47.514;19.056;2023-06-10T05:42:31;2.55;;;0.52;;
50858;SDS011;36826;47.514;19.056;2023-06-10T05:44:56;2.45;;;0.60;;
50858;SDS011;36826;47.514;19.056;2023-06-10T05:47:22;1.90;;;0.80;;
50858;SDS011;36826;47.514;19.056;2023-06-10T05:49:47;2.55;;;0.90;;
50858;SDS011;36826;47.514;19.056;2023-06-10T05:52:14;4.47;;;0.90;;
50858;SDS011;36826;47.514;19.056;2023-06-10T05:54:40;3.45;;;0.95;;
50858;SDS011;36826;47.514;19.056;2023-06-10T05:57:05;2.75;;;1.08;;
50858;SDS011;36826;47.514;19.056;2023-06-10T05:59:31;2.03;;;1.27;;
50858;SDS011;36826;47.514;19.056;2023-06-10T06:01:56;4.43;;;1.20;;
50858;SDS011;36826;47.514;19.056;2023-06-10T06:04:22;1.50;;;0.90;;
50858;SDS011;36826;47.514;19.056;2023-06-10T06:06:47;2.40;;;1.00;;
50858;SDS011;36826;47.514;19.056;2023-06-10T06:09:13;3.38;;;1.17;;
50858;SDS011;36826;47.514;19.056;2023-06-10T06:11:38;21.77;;;17.88;;
50858;SDS011;36826;47.514;19.056;2023-06-10T06:14:04;4.65;;;3.10;;
50858;SDS011;36826;47.514;19.056;2023-06-10T06:16:31;2.85;;;1.20;;
50858;SDS011;36826;47.514;19.056;2023-06-10T06:18:57;2.90;;;1.30;;
50858;SDS011;36826;47.514;19.056;2023-06-10T06:21:23;2.20;;;1.30;;
50858;SDS011;36826;47.514;19.056;2023-06-10T06:23:48;2.38;;;1.40;;
50858;SDS011;36826;47.514;19.056;2023-06-10T06:26:14;2.08;;;1.45;;
50858;SDS011;36826;47.514;19.056;2023-06-10T06:28:39;2.15;;;1.60;;
50858;SDS011;36826;47.514;19.056;2023-06-10T06:31:05;4.18;;;1.65;;
50858;SDS011;36826;47.514;19.056;2023-06-10T06:33:30;2.45;;;1.70;;
50858;SDS011;36826;47.514;19.056;2023-06-10T06:35:56;3.50;;;1.77;;
50858;SDS011;36826;47.514;19.056;2023-06-10T06:38:21;3.08;;;1.50;;
50858;SDS011;36826;47.514;19.056;2023-06-10T06:40:47;2.45;;;1.40;;
50858;SDS011;36826;47.514;19.056;2023-06-10T06:43:12;4.57;;;1.73;;
50858;SDS011;36826;47.514;19.056;2023-06-10T06:45:38;3.27;;;2.73;;
50858;SDS011;36826;47.514;19.056;2023-06-10T06:48:06;2.70;;;1.80;;
50858;SDS011;36826;47.514;19.056;2023-06-10T06:50:33;2.78;;;1.80;;
50858;SDS011;36826;47.514;19.056;2023-06-10T06:53:01;4.07;;;2.42;;
50858;SDS011;36826;47.514;19.056;2023-06-10T06:55:27;2.92;;;2.10;;
50858;SDS011;36826;47.514;19.056;2023-06-10T06:57:52;2.08;;;1.88;;
50858;SDS011;36826;47.514;19.056;2023-06-10T07:00:20;2.78;;;2.35;;
50858;SDS011;36826;47.514;19.056;2023-06-10T07:02:47;4.25;;;2.17;;
50858;SDS011;36826;47.514;19.056;2023-06-10T07:05:13;3.28;;;2.20;;
50858;SDS011;36826;47.514;19.056;2023-06-10T07:07:38;4.18;;;2.42;;
50858;SDS011;36826;47.514;19.056;2023-06-10T07:10:04;3.15;;;2.10;;
50858;SDS011;36826;47.514;19.056;2023-06-10T07:12:30;2.63;;;2.35;;
50858;SDS011;36826;47.514;19.056;2023-06-10T07:14:55;4.82;;;2.63;;
50858;SDS011;36826;47.514;19.056;2023-06-10T07:17:24;2.55;;;2.35;;
50858;SDS011;36826;47.514;19.056;2023-06-10T07:19:49;3.28;;;2.45;;
50858;SDS011;36826;47.514;19.056;2023-06-10T07:22:16;5.07;;;2.60;;
50858;SDS011;36826;47.514;19.056;2023-06-10T07:24:41;2.80;;;2.35;;
50858;SDS011;36826;47.514;19.056;2023-06-10T07:27:08;8.68;;;6.63;;
50858;SDS011;36826;47.514;19.056;2023-06-10T07:29:35;18.70;;;16.75;;
50858;SDS011;36826;47.514;19.056;2023-06-10T07:32:01;3.05;;;2.30;;
50858;SDS011;36826;47.514;19.056;2023-06-10T07:34:28;3.53;;;2.17;;
50858;SDS011;36826;47.514;19.056;2023-06-10T07:36:53;3.45;;;2.13;;
50858;SDS011;36826;47.514;19.056;2023-06-10T07:39:19;2.92;;;2.00;;
50858;SDS011;36826;47.514;19.056;2023-06-10T07:41:44;2.88;;;2.45;;
50858;SDS011;36826;47.514;19.056;2023-06-10T07:44:10;3.60;;;2.30;;
50858;SDS011;36826;47.514;19.056;2023-06-10T07:46:35;2.90;;;2.47;;
50858;SDS011;36826;47.514;19.056;2023-06-10T07:49:01;2.70;;;2.00;;
50858;SDS011;36826;47.514;19.056;2023-06-10T07:51:27;3.00;;;2.40;;
50858;SDS011;36826;47.514;19.056;2023-06-10T07:53:52;2.78;;;2.53;;
50858;SDS011;36826;47.514;19.056;2023-06-10T07:56:19;3.10;;;2.80;;
50858;SDS011;36826;47.514;19.056;2023-06-10T07:58:46;5.47;;;3.40;;
50858;SDS011;36826;47.514;19.056;2023-06-10T08:01:12;6.80;;;2.90;;
50858;SDS011;36826;47.514;19.056;2023-06-10T08:03:38;4.97;;;3.30;;
50858;SDS011;36826;47.514;19.056;2023-06-10T08:06:03;3.35;;;3.05;;
50858;SDS011;36826;47.514;19.056;2023-06-10T08:08:30;8.95;;;3.83;;
50858;SDS011;36826;47.514;19.056;2023-06-10T08:10:56;4.07;;;3.67;;
50858;SDS011;36826;47.514;19.056;2023-06-10T08:13:21;5.07;;;3.00;;
50858;SDS011;36826;47.514;19.056;2023-06-10T08:15:47;3.83;;;3.50;;
50858;SDS011;36826;47.514;19.056;2023-06-10T08:18:15;3.95;;;2.95;;
50858;SDS011;36826;47.514;19.056;2023-06-10T08:20:41;3.25;;;2.92;;
50858;SDS011;36826;47.514;19.056;2023-06-10T08:23:07;4.57;;;3.42;;
50858;SDS011;36826;47.514;19.056;2023-06-10T08:25:32;3.45;;;3.15;;
50858;SDS011;36826;47.514;19.056;2023-06-10T08:27:58;3.35;;;2.80;;
50858;SDS011;36826;47.514;19.056;2023-06-10T08:30:23;3.28;;;2.85;;
50858;SDS011;36826;47.514;19.056;2023-06-10T08:32:49;2.88;;;2.60;;
50858;SDS011;36826;47.514;19.056;2023-06-10T08:35:15;5.28;;;2.92;;
50858;SDS011;36826;47.514;19.056;2023-06-10T08:37:40;3.15;;;2.85;;
50858;SDS011;36826;47.514;19.056;2023-06-10T08:40:06;3.75;;;2.70;;
50858;SDS011;36826;47.514;19.056;2023-06-10T08:45:03;2.35;;;2.15;;
50858;SDS011;36826;47.514;19.056;2023-06-10T08:47:32;2.20;;;2.00;;
50858;SDS011;36826;47.514;19.056;2023-06-10T08:50:03;2.55;;;2.28;;
50858;SDS011;36826;47.514;19.056;2023-06-10T08:52:29;2.58;;;2.38;;
50858;SDS011;36826;47.514;19.056;2023-06-10T08:55:12;2.50;;;2.30;;
50858;SDS011;36826;47.514;19.056;2023-06-10T08:57:40;2.70;;;2.50;;
50858;SDS011;36826;47.514;19.056;2023-06-10T09:00:09;3.38;;;2.60;;
50858;SDS011;36826;47.514;19.056;2023-06-10T09:02:35;4.40;;;2.85;;
50858;SDS011;36826;47.514;19.056;2023-06-10T09:05:02;3.03;;;2.72;;
50858;SDS011;36826;47.514;19.056;2023-06-10T09:07:28;2.72;;;2.53;;
50858;SDS011;36826;47.514;19.056;2023-06-10T09:10:01;2.90;;;2.70;;
50858;SDS011;36826;47.514;19.056;2023-06-10T09:12:29;3.17;;;2.60;;
50858;SDS011;36826;47.514;19.056;2023-06-10T09:14:55;3.30;;;3.00;;
50858;SDS011;36826;47.514;19.056;2023-06-10T09:17:21;3.45;;;3.15;;
50858;SDS011;36826;47.514;19.056;2023-06-10T09:22:13;3.78;;;3.30;;
50858;SDS011;36826;47.514;19.056;2023-06-10T09:24:39;3.60;;;3.40;;
50858;SDS011;36826;47.514;19.056;2023-06-10T09:27:06;3.78;;;3.47;;
50858;SDS011;36826;47.514;19.056;2023-06-10T09:32:27;3.63;;;3.33;;
50858;SDS011;36826;47.514;19.056;2023-06-10T09:34:55;4.03;;;3.55;;
50858;SDS011;36826;47.514;19.056;2023-06-10T09:37:21;4.27;;;3.90;;
50858;SDS011;36826;47.514;19.056;2023-06-10T09:40:04;4.43;;;3.63;;
50858;SDS011;36826;47.514;19.056;2023-06-10T09:42:35;3.72;;;3.42;;
50858;SDS011;36826;47.514;19.056;2023-06-10T09:45:03;4.75;;;3.83;;
50858;SDS011;36826;47.514;19.056;2023-06-10T09:47:29;4.10;;;3.80;;
50858;SDS011;36826;47.514;19.056;2023-06-10T09:49:55;4.90;;;4.50;;
50858;SDS011;36826;47.514;19.056;2023-06-10T09:52:21;5.57;;;5.07;;
50858;SDS011;36826;47.514;19.056;2023-06-10T09:54:53;6.85;;;6.25;;
50858;SDS011;36826;47.514;19.056;2023-06-10T09:57:24;8.05;;;7.45;;
50858;SDS011;36826;47.514;19.056;2023-06-10T09:59:53;8.18;;;7.50;;
50858;SDS011;36826;47.514;19.056;2023-06-10T10:02:19;8.07;;;7.38;;
50858;SDS011;36826;47.514;19.056;2023-06-10T10:04:45;8.40;;;7.60;;
50858;SDS011;36826;47.514;19.056;2023-06-10T10:07:11;8.32;;;7.57;;
50858;SDS011;36826;47.514;19.056;2023-06-10T10:09:37;9.02;;;8.23;;
50858;SDS011;36826;47.514;19.056;2023-06-10T10:12:13;9.57;;;8.68;;
50858;SDS011;36826;47.514;19.056;2023-06-10T10:14:43;10.30;;;9.30;;
50858;SDS011;36826;47.514;19.056;2023-06-10T10:17:11;9.57;;;8.70;;
50858;SDS011;36826;47.514;19.056;2023-06-10T10:19:45;7.85;;;7.20;;
50858;SDS011;36826;47.514;19.056;2023-06-10T10:22:35;9.38;;;8.57;;
50858;SDS011;36826;47.514;19.056;2023-06-10T10:25:28;9.00;;;8.30;;
50858;SDS011;36826;47.514;19.056;2023-06-10T10:27:57;8.23;;;7.53;;
50858;SDS011;36826;47.514;19.056;2023-06-10T10:30:28;7.00;;;6.40;;
50858;SDS011;36826;47.514;19.056;2023-06-10T10:33:00;7.40;;;6.80;;
50858;SDS011;36826;47.514;19.056;2023-06-10T10:35:30;7.80;;;7.10;;
50858;SDS011;36826;47.514;19.056;2023-06-10T10:37:58;7.90;;;7.15;;
50858;SDS011;36826;47.514;19.056;2023-06-10T10:40:23;8.18;;;7.47;;
50858;SDS011;36826;47.514;19.056;2023-06-10T10:42:51;8.18;;;7.05;;
50858;SDS011;36826;47.514;19.056;2023-06-10T10:45:17;7.63;;;6.93;;
50858;SDS011;36826;47.514;19.056;2023-06-10T10:47:45;7.47;;;6.78;;
50858;SDS011;36826;47.514;19.056;2023-06-10T10:52:56;6.40;;;5.90;;
50858;SDS011;36826;47.514;19.056;2023-06-10T10:55:25;6.68;;;6.07;;
50858;SDS011;36826;47.514;19.056;2023-06-10T11:05:41;4.93;;;4.60;;
50858;SDS011;36826;47.514;19.056;2023-06-10T11:08:14;5.47;;;4.97;;
50858;SDS011;36826;47.514;19.056;2023-06-10T11:11:01;5.05;;;4.63;;
50858;SDS011;36826;47.514;19.056;2023-06-10T11:13:57;5.47;;;4.97;;
50858;SDS011;36826;47.514;19.056;2023-06-10T11:16:40;6.20;;;5.70;;
50858;SDS011;36826;47.514;19.056;2023-06-10T11:19:08;6.30;;;5.70;;
50858;SDS011;36826;47.514;19.056;2023-06-10T11:24:25;8.05;;;6.75;;
50858;SDS011;36826;47.514;19.056;2023-06-10T11:26:51;7.45;;;5.95;;
50858;SDS011;36826;47.514;19.056;2023-06-10T11:29:17;5.25;;;4.57;;
50858;SDS011;36826;47.514;19.056;2023-06-10T11:31:48;4.80;;;4.40;;
50858;SDS011;36826;47.514;19.056;2023-06-10T11:34:15;5.50;;;4.95;;
50858;SDS011;36826;47.514;19.056;2023-06-10T11:36:48;6.20;;;5.65;;
50858;SDS011;36826;47.514;19.056;2023-06-10T11:39:14;5.38;;;4.97;;
50858;SDS011;36826;47.514;19.056;2023-06-10T11:41:39;5.43;;;4.40;;
50858;SDS011;36826;47.514;19.056;2023-06-10T11:46:35;4.65;;;4.30;;
50858;SDS011;36826;47.514;19.056;2023-06-10T11:49:01;4.85;;;4.20;;
50858;SDS011;36826;47.514;19.056;2023-06-10T11:51:29;4.63;;;4.22;;
50858;SDS011;36826;47.514;19.056;2023-06-10T11:53:57;5.18;;;4.75;;
50858;SDS011;36826;47.514;19.056;2023-06-10T11:56:24;5.18;;;4.70;;
50858;SDS011;36826;47.514;19.056;2023-06-10T12:01:21;6.03;;;5.10;;
50858;SDS011;36826;47.514;19.056;2023-06-10T12:03:47;5.32;;;4.75;;
50858;SDS011;36826;47.514;19.056;2023-06-10T12:06:21;6.53;;;6.03;;
50858;SDS011;36826;47.514;19.056;2023-06-10T12:08:46;6.00;;;5.50;;
50858;SDS011;36826;47.514;19.056;2023-06-10T12:11:12;6.18;;;5.68;;
50858;SDS011;36826;47.514;19.056;2023-06-10T12:13:37;4.95;;;4.63;;
50858;SDS011;36826;47.514;19.056;2023-06-10T12:16:13;4.82;;;4.43;;
50858;SDS011;36826;47.514;19.056;2023-06-10T12:18:38;4.53;;;4.13;;
50858;SDS011;36826;47.514;19.056;2023-06-10T12:21:14;5.47;;;4.95;;
50858;SDS011;36826;47.514;19.056;2023-06-10T12:24:13;4.78;;;4.30;;
50858;SDS011;36826;47.514;19.056;2023-06-10T12:26:43;7.55;;;6.43;;
50858;SDS011;36826;47.514;19.056;2023-06-10T12:29:21;8.93;;;8.13;;
50858;SDS011;36826;47.514;19.056;2023-06-10T12:31:56;4.30;;;3.53;;
50858;SDS011;36826;47.514;19.056;2023-06-10T12:34:32;3.55;;;3.25;;
50858;SDS011;36826;47.514;19.056;2023-06-10T12:37:00;3.05;;;2.85;;
50858;SDS011;36826;47.514;19.056;2023-06-10T12:39:27;2.78;;;2.58;;
50858;SDS011;36826;47.514;19.056;2023-06-10T12:41:53;2.80;;;2.60;;
50858;SDS011;36826;47.514;19.056;2023-06-10T12:44:28;2.17;;;1.98;;
50858;SDS011;36826;47.514;19.056;2023-06-10T12:46:57;3.45;;;2.10;;
50858;SDS011;36826;47.514;19.056;2023-06-10T12:49:23;2.85;;;2.50;;
50858;SDS011;36826;47.514;19.056;2023-06-10T12:51:48;3.13;;;1.90;;
50858;SDS011;36826;47.514;19.056;2023-06-10T12:54:14;2.15;;;1.52;;
50858;SDS011;36826;47.514;19.056;2023-06-10T12:56:39;2.22;;;1.58;;
50858;SDS011;36826;47.514;19.056;2023-06-10T12:59:05;2.53;;;1.70;;
50858;SDS011;36826;47.514;19.056;2023-06-10T13:01:31;2.10;;;1.50;;
50858;SDS011;36826;47.514;19.056;2023-06-10T13:03:57;1.98;;;1.55;;
50858;SDS011;36826;47.514;19.056;2023-06-10T13:06:23;1.73;;;1.55;;
50858;SDS011;36826;47.514;19.056;2023-06-10T13:08:48;1.50;;;1.40;;
50858;SDS011;36826;47.514;19.056;2023-06-10T13:11:16;1.55;;;1.35;;
50858;SDS011;36826;47.514;19.056;2023-06-10T13:13:41;1.45;;;1.35;;
50858;SDS011;36826;47.514;19.056;2023-06-10T13:16:07;1.85;;;1.65;;
50858;SDS011;36826;47.514;19.056;2023-06-10T13:18:33;2.17;;;1.40;;
50858;SDS011;36826;47.514;19.056;2023-06-10T13:21:05;12.85;;;10.15;;
50858;SDS011;36826;47.514;19.056;2023-06-10T13:23:30;25.40;;;22.15;;
50858;SDS011;36826;47.514;19.056;2023-06-10T13:25:56;2.33;;;1.38;;
50858;SDS011;36826;47.514;19.056;2023-06-10T13:28:22;1.40;;;1.30;;
50858;SDS011;36826;47.514;19.056;2023-06-10T13:30:47;1.23;;;1.13;;
50858;SDS011;36826;47.514;19.056;2023-06-10T13:33:13;2.40;;;1.58;;
50858;SDS011;36826;47.514;19.056;2023-06-10T13:35:38;2.50;;;1.58;;
50858;SDS011;36826;47.514;19.056;2023-06-10T13:38:04;2.00;;;1.33;;
50858;SDS011;36826;47.514;19.056;2023-06-10T13:40:29;2.00;;;1.65;;
50858;SDS011;36826;47.514;19.056;2023-06-10T13:42:55;1.98;;;1.70;;
50858;SDS011;36826;47.514;19.056;2023-06-10T13:45:21;2.30;;;2.10;;
50858;SDS011;36826;47.514;19.056;2023-06-10T13:47:46;2.78;;;2.58;;
50858;SDS011;36826;47.514;19.056;2023-06-10T13:50:12;1.90;;;1.80;;
50858;SDS011;36826;47.514;19.056;2023-06-10T13:52:38;1.98;;;1.88;;
50858;SDS011;36826;47.514;19.056;2023-06-10T13:55:04;3.60;;;1.83;;
50858;SDS011;36826;47.514;19.056;2023-06-10T13:57:33;2.35;;;2.08;;
50858;SDS011;36826;47.514;19.056;2023-06-10T13:59:59;2.00;;;1.80;;
50858;SDS011;36826;47.514;19.056;2023-06-10T14:02:24;2.20;;;2.00;;
50858;SDS011;36826;47.514;19.056;2023-06-10T14:04:50;2.20;;;2.00;;
50858;SDS011;36826;47.514;19.056;2023-06-10T14:07:16;2.08;;;1.80;;
50858;SDS011;36826;47.514;19.056;2023-06-10T14:09:47;2.10;;;1.90;;
50858;SDS011;36826;47.514;19.056;2023-06-10T14:12:16;1.73;;;1.63;;
50858;SDS011;36826;47.514;19.056;2023-06-10T14:14:43;3.10;;;1.85;;
50858;SDS011;36826;47.514;19.056;2023-06-10T14:17:08;2.13;;;1.70;;
50858;SDS011;36826;47.514;19.056;2023-06-10T14:19:34;1.75;;;1.27;;
50858;SDS011;36826;47.514;19.056;2023-06-10T14:22:00;1.60;;;1.50;;
50858;SDS011;36826;47.514;19.056;2023-06-10T14:24:33;2.20;;;1.30;;
50858;SDS011;36826;47.514;19.056;2023-06-10T14:27:01;3.13;;;1.38;;
50858;SDS011;36826;47.514;19.056;2023-06-10T14:29:27;2.10;;;1.20;;
50858;SDS011;36826;47.514;19.056;2023-06-10T14:31:54;2.07;;;1.40;;
50858;SDS011;36826;47.514;19.056;2023-06-10T14:34:20;2.28;;;1.15;;
50858;SDS011;36826;47.514;19.056;2023-06-10T14:36:45;1.85;;;1.30;;
50858;SDS011;36826;47.514;19.056;2023-06-10T14:39:11;2.10;;;1.45;;
50858;SDS011;36826;47.514;19.056;2023-06-10T14:41:37;1.75;;;1.40;;
50858;SDS011;36826;47.514;19.056;2023-06-10T14:44:02;3.15;;;1.50;;
50858;SDS011;36826;47.514;19.056;2023-06-10T14:46:28;3.05;;;2.03;;
50858;SDS011;36826;47.514;19.056;2023-06-10T14:48:54;1.50;;;1.35;;
50858;SDS011;36826;47.514;19.056;2023-06-10T14:51:19;1.98;;;1.50;;
50858;SDS011;36826;47.514;19.056;2023-06-10T14:53:46;1.55;;;1.40;;
50858;SDS011;36826;47.514;19.056;2023-06-10T14:56:11;2.88;;;1.50;;
50858;SDS011;36826;47.514;19.056;2023-06-10T14:58:37;1.80;;;1.60;;
50858;SDS011;36826;47.514;19.056;2023-06-10T15:01:03;1.98;;;1.77;;
50858;SDS011;36826;47.514;19.056;2023-06-10T15:03:29;2.00;;;1.75;;